sensor_id;sensor_type;location;lat;lon;timestamp;P1;durP1;ratioP1;P2;durP2;ratioP2
20970;SDS011;10644;48.834;10.088;2024-01-30T00:02:14;41.00;;;19.50;;
20970;SDS011;10644;48.834;10.088;2024-01-30T00:04:40;39.37;;;19.23;;
20970;SDS011;10644;48.834;10.088;2024-01-30T00:07:05;32.50;;;18.90;;
20970;SDS011;10644;48.834;10.088;2024-01-30T00:09:30;37.40;;;18.70;;
20970;SDS011;10644;48.834;10.088;2024-01-30T00:11:56;35.67;;;19.27;;
20970;SDS011;10644;48.834;10.088;2024-01-30T00:14:22;39.10;;;21.00;;
20970;SDS011;10644;48.834;10.088;2024-01-30T00:16:48;38.93;;;19.93;;
20970;SDS011;10644;48.834;10.088;2024-01-30T00:19:13;38.13;;;18.87;;
20970;SDS011;10644;48.834;10.088;2024-01-30T00:21:39;33.70;;;17.80;;
20970;SDS011;10644;48.834;10.088;2024-01-30T00:24:04;29.07;;;16.53;;
20970;SDS011;10644;48.834;10.088;2024-01-30T00:26:32;26.00;;;15.13;;
20970;SDS011;10644;48.834;10.088;2024-01-30T00:28:57;27.23;;;15.80;;
20970;SDS011;10644;48.834;10.088;2024-01-30T00:31:23;24.20;;;14.00;;
20970;SDS011;10644;48.834;10.088;2024-01-30T00:33:49;25.20;;;14.00;;
20970;SDS011;10644;48.834;10.088;2024-01-30T00:36:14;27.40;;;14.67;;
20970;SDS011;10644;48.834;10.088;2024-01-30T00:38:39;34.50;;;16.23;;
20970;SDS011;10644;48.834;10.088;2024-01-30T00:41:06;24.95;;;14.63;;
20970;SDS011;10644;48.834;10.088;2024-01-30T00:43:32;28.80;;;13.30;;
20970;SDS011;10644;48.834;10.088;2024-01-30T00:45:58;25.30;;;14.23;;
20970;SDS011;10644;48.834;10.088;2024-01-30T00:48:24;35.67;;;15.97;;
20970;SDS011;10644;48.834;10.088;2024-01-30T00:50:49;22.83;;;13.77;;
20970;SDS011;10644;48.834;10.088;2024-01-30T00:53:15;26.43;;;14.87;;
20970;SDS011;10644;48.834;10.088;2024-01-30T00:55:40;23.07;;;13.53;;
20970;SDS011;10644;48.834;10.088;2024-01-30T00:58:08;26.17;;;14.40;;
20970;SDS011;10644;48.834;10.088;2024-01-30T01:00:34;29.73;;;14.80;;
20970;SDS011;10644;48.834;10.088;2024-01-30T01:03:02;24.33;;;14.10;;
20970;SDS011;10644;48.834;10.088;2024-01-30T01:05:28;23.83;;;12.90;;
20970;SDS011;10644;48.834;10.088;2024-01-30T01:07:56;26.52;;;15.25;;
20970;SDS011;10644;48.834;10.088;2024-01-30T01:10:21;26.43;;;15.13;;
20970;SDS011;10644;48.834;10.088;2024-01-30T01:12:49;27.35;;;13.90;;
20970;SDS011;10644;48.834;10.088;2024-01-30T01:15:15;29.77;;;15.00;;
20970;SDS011;10644;48.834;10.088;2024-01-30T01:17:40;28.23;;;15.03;;
20970;SDS011;10644;48.834;10.088;2024-01-30T01:20:06;22.43;;;13.30;;
20970;SDS011;10644;48.834;10.088;2024-01-30T01:22:32;27.13;;;14.70;;
20970;SDS011;10644;48.834;10.088;2024-01-30T01:24:59;27.20;;;14.97;;
20970;SDS011;10644;48.834;10.088;2024-01-30T01:27:24;33.17;;;15.70;;
20970;SDS011;10644;48.834;10.088;2024-01-30T01:29:52;23.85;;;14.23;;
20970;SDS011;10644;48.834;10.088;2024-01-30T01:32:18;25.00;;;14.53;;
20970;SDS011;10644;48.834;10.088;2024-01-30T01:34:44;26.33;;;14.37;;
20970;SDS011;10644;48.834;10.088;2024-01-30T01:37:09;38.53;;;15.17;;
20970;SDS011;10644;48.834;10.088;2024-01-30T01:39:35;24.20;;;14.00;;
20970;SDS011;10644;48.834;10.088;2024-01-30T01:42:03;25.67;;;15.30;;
20970;SDS011;10644;48.834;10.088;2024-01-30T01:44:28;30.17;;;13.70;;
20970;SDS011;10644;48.834;10.088;2024-01-30T01:46:54;31.13;;;15.30;;
20970;SDS011;10644;48.834;10.088;2024-01-30T01:49:29;24.90;;;14.07;;
20970;SDS011;10644;48.834;10.088;2024-01-30T01:51:55;28.75;;;14.00;;
20970;SDS011;10644;48.834;10.088;2024-01-30T01:54:23;22.92;;;13.48;;
20970;SDS011;10644;48.834;10.088;2024-01-30T01:56:50;27.48;;;14.40;;
20970;SDS011;10644;48.834;10.088;2024-01-30T01:59:17;19.65;;;12.60;;
20970;SDS011;10644;48.834;10.088;2024-01-30T02:01:43;26.43;;;14.53;;
20970;SDS011;10644;48.834;10.088;2024-01-30T02:04:08;25.13;;;14.93;;
20970;SDS011;10644;48.834;10.088;2024-01-30T02:06:36;23.83;;;13.80;;
20970;SDS011;10644;48.834;10.088;2024-01-30T02:09:02;25.60;;;14.02;;
20970;SDS011;10644;48.834;10.088;2024-01-30T02:11:29;21.42;;;13.00;;
20970;SDS011;10644;48.834;10.088;2024-01-30T02:13:55;26.83;;;13.77;;
20970;SDS011;10644;48.834;10.088;2024-01-30T02:16:20;23.87;;;13.33;;
20970;SDS011;10644;48.834;10.088;2024-01-30T02:18:46;27.23;;;15.10;;
20970;SDS011;10644;48.834;10.088;2024-01-30T02:21:15;30.50;;;13.68;;
20970;SDS011;10644;48.834;10.088;2024-01-30T02:23:41;22.90;;;14.32;;
20970;SDS011;10644;48.834;10.088;2024-01-30T02:26:09;22.73;;;13.98;;
20970;SDS011;10644;48.834;10.088;2024-01-30T02:28:34;25.13;;;13.57;;
20970;SDS011;10644;48.834;10.088;2024-01-30T02:31:00;30.60;;;13.50;;
20970;SDS011;10644;48.834;10.088;2024-01-30T02:33:25;26.70;;;13.70;;
20970;SDS011;10644;48.834;10.088;2024-01-30T02:35:50;26.33;;;13.90;;
20970;SDS011;10644;48.834;10.088;2024-01-30T02:38:16;28.10;;;13.93;;
20970;SDS011;10644;48.834;10.088;2024-01-30T02:40:41;21.90;;;13.63;;
20970;SDS011;10644;48.834;10.088;2024-01-30T02:43:07;21.07;;;11.80;;
20970;SDS011;10644;48.834;10.088;2024-01-30T02:45:32;23.03;;;12.87;;
20970;SDS011;10644;48.834;10.088;2024-01-30T02:48:00;23.00;;;12.50;;
20970;SDS011;10644;48.834;10.088;2024-01-30T02:50:27;26.35;;;13.50;;
20970;SDS011;10644;48.834;10.088;2024-01-30T02:52:53;24.37;;;12.27;;
20970;SDS011;10644;48.834;10.088;2024-01-30T02:55:18;23.23;;;12.90;;
20970;SDS011;10644;48.834;10.088;2024-01-30T02:57:44;26.70;;;14.07;;
20970;SDS011;10644;48.834;10.088;2024-01-30T03:00:09;26.53;;;15.73;;
20970;SDS011;10644;48.834;10.088;2024-01-30T03:02:35;33.63;;;14.20;;
20970;SDS011;10644;48.834;10.088;2024-01-30T03:05:01;26.40;;;14.30;;
20970;SDS011;10644;48.834;10.088;2024-01-30T03:07:28;28.30;;;13.85;;
20970;SDS011;10644;48.834;10.088;2024-01-30T03:09:54;26.30;;;14.17;;
20970;SDS011;10644;48.834;10.088;2024-01-30T03:12:20;22.80;;;13.30;;
20970;SDS011;10644;48.834;10.088;2024-01-30T03:14:46;24.23;;;13.60;;
20970;SDS011;10644;48.834;10.088;2024-01-30T03:17:11;23.50;;;13.20;;
20970;SDS011;10644;48.834;10.088;2024-01-30T03:19:36;35.70;;;13.70;;
20970;SDS011;10644;48.834;10.088;2024-01-30T03:22:02;27.00;;;13.60;;
20970;SDS011;10644;48.834;10.088;2024-01-30T03:24:27;26.53;;;15.20;;
20970;SDS011;10644;48.834;10.088;2024-01-30T03:26:53;26.37;;;14.17;;
20970;SDS011;10644;48.834;10.088;2024-01-30T03:29:18;30.10;;;14.90;;
20970;SDS011;10644;48.834;10.088;2024-01-30T03:31:43;37.87;;;15.87;;
20970;SDS011;10644;48.834;10.088;2024-01-30T03:34:09;26.60;;;15.33;;
20970;SDS011;10644;48.834;10.088;2024-01-30T03:36:34;26.17;;;14.93;;
20970;SDS011;10644;48.834;10.088;2024-01-30T03:39:00;27.93;;;13.97;;
20970;SDS011;10644;48.834;10.088;2024-01-30T03:41:26;34.13;;;14.68;;
20970;SDS011;10644;48.834;10.088;2024-01-30T03:43:53;30.33;;;14.98;;
20970;SDS011;10644;48.834;10.088;2024-01-30T03:46:19;36.17;;;15.40;;
20970;SDS011;10644;48.834;10.088;2024-01-30T03:48:45;29.97;;;14.30;;
20970;SDS011;10644;48.834;10.088;2024-01-30T03:51:13;33.03;;;14.20;;
20970;SDS011;10644;48.834;10.088;2024-01-30T03:53:40;39.42;;;14.98;;
20970;SDS011;10644;48.834;10.088;2024-01-30T03:56:06;34.78;;;15.65;;
20970;SDS011;10644;48.834;10.088;2024-01-30T03:58:32;33.00;;;14.60;;
20970;SDS011;10644;48.834;10.088;2024-01-30T04:00:57;27.23;;;15.00;;
20970;SDS011;10644;48.834;10.088;2024-01-30T04:03:22;37.90;;;15.60;;
20970;SDS011;10644;48.834;10.088;2024-01-30T04:05:48;26.33;;;14.57;;
20970;SDS011;10644;48.834;10.088;2024-01-30T04:08:13;28.70;;;14.80;;
20970;SDS011;10644;48.834;10.088;2024-01-30T04:10:38;27.00;;;13.70;;
20970;SDS011;10644;48.834;10.088;2024-01-30T04:13:05;32.03;;;14.75;;
20970;SDS011;10644;48.834;10.088;2024-01-30T04:15:30;26.83;;;14.80;;
20970;SDS011;10644;48.834;10.088;2024-01-30T04:17:58;34.13;;;14.67;;
20970;SDS011;10644;48.834;10.088;2024-01-30T04:20:24;26.77;;;14.30;;
20970;SDS011;10644;48.834;10.088;2024-01-30T04:22:50;27.67;;;12.75;;
20970;SDS011;10644;48.834;10.088;2024-01-30T04:25:15;23.63;;;13.30;;
20970;SDS011;10644;48.834;10.088;2024-01-30T04:27:41;28.67;;;14.23;;
20970;SDS011;10644;48.834;10.088;2024-01-30T04:30:06;29.17;;;13.90;;
20970;SDS011;10644;48.834;10.088;2024-01-30T04:32:32;30.60;;;14.47;;
20970;SDS011;10644;48.834;10.088;2024-01-30T04:35:02;28.13;;;14.15;;
20970;SDS011;10644;48.834;10.088;2024-01-30T04:37:30;26.95;;;13.75;;
20970;SDS011;10644;48.834;10.088;2024-01-30T04:39:56;30.43;;;14.03;;
20970;SDS011;10644;48.834;10.088;2024-01-30T04:42:21;28.50;;;13.67;;
20970;SDS011;10644;48.834;10.088;2024-01-30T04:44:47;42.30;;;15.30;;
20970;SDS011;10644;48.834;10.088;2024-01-30T04:47:12;31.23;;;13.70;;
20970;SDS011;10644;48.834;10.088;2024-01-30T04:49:38;31.33;;;14.40;;
20970;SDS011;10644;48.834;10.088;2024-01-30T04:52:05;26.85;;;14.32;;
20970;SDS011;10644;48.834;10.088;2024-01-30T04:54:31;29.35;;;15.07;;
20970;SDS011;10644;48.834;10.088;2024-01-30T04:56:56;26.57;;;13.20;;
20970;SDS011;10644;48.834;10.088;2024-01-30T04:59:21;28.80;;;15.10;;
20970;SDS011;10644;48.834;10.088;2024-01-30T05:01:46;29.57;;;14.20;;
20970;SDS011;10644;48.834;10.088;2024-01-30T05:04:12;25.50;;;14.23;;
20970;SDS011;10644;48.834;10.088;2024-01-30T05:06:37;61.97;;;20.10;;
20970;SDS011;10644;48.834;10.088;2024-01-30T05:09:03;39.17;;;19.77;;
20970;SDS011;10644;48.834;10.088;2024-01-30T05:11:31;25.55;;;13.93;;
20970;SDS011;10644;48.834;10.088;2024-01-30T05:13:56;31.80;;;14.83;;
20970;SDS011;10644;48.834;10.088;2024-01-30T05:16:22;29.97;;;14.70;;
20970;SDS011;10644;48.834;10.088;2024-01-30T05:18:47;33.43;;;14.83;;
20970;SDS011;10644;48.834;10.088;2024-01-30T05:21:13;30.07;;;14.23;;
20970;SDS011;10644;48.834;10.088;2024-01-30T05:23:38;32.87;;;15.83;;
20970;SDS011;10644;48.834;10.088;2024-01-30T05:26:03;35.33;;;15.60;;
20970;SDS011;10644;48.834;10.088;2024-01-30T05:28:29;42.33;;;17.43;;
20970;SDS011;10644;48.834;10.088;2024-01-30T05:30:57;31.95;;;15.88;;
20970;SDS011;10644;48.834;10.088;2024-01-30T05:33:23;33.27;;;16.50;;
20970;SDS011;10644;48.834;10.088;2024-01-30T05:35:48;41.00;;;17.50;;
20970;SDS011;10644;48.834;10.088;2024-01-30T05:38:15;44.67;;;19.63;;
20970;SDS011;10644;48.834;10.088;2024-01-30T05:40:40;31.80;;;18.40;;
20970;SDS011;10644;48.834;10.088;2024-01-30T05:43:06;37.88;;;18.40;;
20970;SDS011;10644;48.834;10.088;2024-01-30T05:45:32;42.85;;;19.50;;
20970;SDS011;10644;48.834;10.088;2024-01-30T05:47:59;40.30;;;17.58;;
20970;SDS011;10644;48.834;10.088;2024-01-30T05:50:24;31.13;;;17.30;;
20970;SDS011;10644;48.834;10.088;2024-01-30T05:52:51;44.78;;;17.10;;
20970;SDS011;10644;48.834;10.088;2024-01-30T05:55:16;31.43;;;16.40;;
20970;SDS011;10644;48.834;10.088;2024-01-30T05:57:42;43.23;;;18.50;;
20970;SDS011;10644;48.834;10.088;2024-01-30T06:00:07;30.73;;;17.13;;
20970;SDS011;10644;48.834;10.088;2024-01-30T06:02:35;47.47;;;19.67;;
20970;SDS011;10644;48.834;10.088;2024-01-30T06:05:01;39.50;;;19.60;;
20970;SDS011;10644;48.834;10.088;2024-01-30T06:07:26;51.17;;;19.70;;
20970;SDS011;10644;48.834;10.088;2024-01-30T06:09:51;32.33;;;18.03;;
20970;SDS011;10644;48.834;10.088;2024-01-30T06:12:16;42.20;;;19.80;;
20970;SDS011;10644;48.834;10.088;2024-01-30T06:14:42;41.97;;;18.30;;
20970;SDS011;10644;48.834;10.088;2024-01-30T06:17:08;42.27;;;18.57;;
20970;SDS011;10644;48.834;10.088;2024-01-30T06:19:34;33.13;;;16.80;;
20970;SDS011;10644;48.834;10.088;2024-01-30T06:21:59;40.93;;;18.77;;
20970;SDS011;10644;48.834;10.088;2024-01-30T06:24:24;45.80;;;19.30;;
20970;SDS011;10644;48.834;10.088;2024-01-30T06:26:50;38.73;;;17.60;;
20970;SDS011;10644;48.834;10.088;2024-01-30T06:29:15;43.03;;;22.20;;
20970;SDS011;10644;48.834;10.088;2024-01-30T06:31:43;45.90;;;17.25;;
20970;SDS011;10644;48.834;10.088;2024-01-30T06:34:09;40.07;;;19.83;;
20970;SDS011;10644;48.834;10.088;2024-01-30T06:36:36;46.67;;;18.77;;
20970;SDS011;10644;48.834;10.088;2024-01-30T06:39:02;38.97;;;19.90;;
20970;SDS011;10644;48.834;10.088;2024-01-30T06:41:30;42.47;;;19.67;;
20970;SDS011;10644;48.834;10.088;2024-01-30T06:43:56;65.20;;;21.27;;
20970;SDS011;10644;48.834;10.088;2024-01-30T06:46:24;87.78;;;32.15;;
20970;SDS011;10644;48.834;10.088;2024-01-30T06:48:52;70.40;;;23.83;;
20970;SDS011;10644;48.834;10.088;2024-01-30T06:51:17;74.95;;;24.80;;
20970;SDS011;10644;48.834;10.088;2024-01-30T06:53:45;78.43;;;27.23;;
20970;SDS011;10644;48.834;10.088;2024-01-30T06:56:11;116.55;;;44.85;;
20970;SDS011;10644;48.834;10.088;2024-01-30T06:58:36;72.00;;;25.80;;
20970;SDS011;10644;48.834;10.088;2024-01-30T07:01:01;73.43;;;24.80;;
20970;SDS011;10644;48.834;10.088;2024-01-30T07:03:27;78.83;;;24.83;;
20970;SDS011;10644;48.834;10.088;2024-01-30T07:05:53;86.63;;;24.27;;
20970;SDS011;10644;48.834;10.088;2024-01-30T07:08:25;57.17;;;21.25;;
20970;SDS011;10644;48.834;10.088;2024-01-30T07:10:51;69.10;;;22.30;;
20970;SDS011;10644;48.834;10.088;2024-01-30T07:13:23;60.40;;;21.30;;
20970;SDS011;10644;48.834;10.088;2024-01-30T07:15:48;67.82;;;20.95;;
20970;SDS011;10644;48.834;10.088;2024-01-30T07:18:14;89.37;;;22.63;;
20970;SDS011;10644;48.834;10.088;2024-01-30T07:20:39;64.83;;;21.40;;
20970;SDS011;10644;48.834;10.088;2024-01-30T07:23:12;74.60;;;23.05;;
20970;SDS011;10644;48.834;10.088;2024-01-30T07:25:40;93.55;;;24.65;;
20970;SDS011;10644;48.834;10.088;2024-01-30T07:28:06;92.13;;;24.33;;
20970;SDS011;10644;48.834;10.088;2024-01-30T07:30:46;66.65;;;22.27;;
20970;SDS011;10644;48.834;10.088;2024-01-30T07:33:13;51.22;;;21.08;;
20970;SDS011;10644;48.834;10.088;2024-01-30T07:35:38;75.07;;;23.27;;
20970;SDS011;10644;48.834;10.088;2024-01-30T07:38:04;61.23;;;21.17;;
20970;SDS011;10644;48.834;10.088;2024-01-30T07:40:30;60.10;;;23.67;;
20970;SDS011;10644;48.834;10.088;2024-01-30T07:42:58;62.17;;;21.75;;
20970;SDS011;10644;48.834;10.088;2024-01-30T07:45:23;55.67;;;23.03;;
20970;SDS011;10644;48.834;10.088;2024-01-30T07:47:52;81.03;;;24.52;;
20970;SDS011;10644;48.834;10.088;2024-01-30T07:50:18;72.87;;;23.53;;
20970;SDS011;10644;48.834;10.088;2024-01-30T07:52:44;87.10;;;25.63;;
20970;SDS011;10644;48.834;10.088;2024-01-30T07:55:09;61.07;;;23.10;;
20970;SDS011;10644;48.834;10.088;2024-01-30T07:57:35;58.27;;;23.63;;
20970;SDS011;10644;48.834;10.088;2024-01-30T08:00:03;68.85;;;23.48;;
20970;SDS011;10644;48.834;10.088;2024-01-30T08:02:30;70.78;;;24.42;;
20970;SDS011;10644;48.834;10.088;2024-01-30T08:04:56;57.07;;;23.30;;
20970;SDS011;10644;48.834;10.088;2024-01-30T08:07:21;65.53;;;22.90;;
20970;SDS011;10644;48.834;10.088;2024-01-30T08:09:49;63.92;;;24.77;;
20970;SDS011;10644;48.834;10.088;2024-01-30T08:12:17;58.10;;;21.80;;
20970;SDS011;10644;48.834;10.088;2024-01-30T08:14:42;60.05;;;25.30;;
20970;SDS011;10644;48.834;10.088;2024-01-30T08:17:08;73.37;;;29.10;;
20970;SDS011;10644;48.834;10.088;2024-01-30T08:19:33;65.87;;;25.33;;
20970;SDS011;10644;48.834;10.088;2024-01-30T08:21:58;66.00;;;25.00;;
20970;SDS011;10644;48.834;10.088;2024-01-30T08:24:26;69.57;;;24.37;;
20970;SDS011;10644;48.834;10.088;2024-01-30T08:26:52;70.57;;;25.20;;
20970;SDS011;10644;48.834;10.088;2024-01-30T08:29:17;56.47;;;22.87;;
20970;SDS011;10644;48.834;10.088;2024-01-30T08:31:46;72.05;;;24.80;;
20970;SDS011;10644;48.834;10.088;2024-01-30T08:34:11;47.00;;;20.93;;
20970;SDS011;10644;48.834;10.088;2024-01-30T08:36:36;65.07;;;24.90;;
20970;SDS011;10644;48.834;10.088;2024-01-30T08:39:02;66.00;;;25.90;;
20970;SDS011;10644;48.834;10.088;2024-01-30T08:41:28;58.00;;;25.43;;
20970;SDS011;10644;48.834;10.088;2024-01-30T08:43:53;52.97;;;22.10;;
20970;SDS011;10644;48.834;10.088;2024-01-30T08:46:19;51.87;;;22.00;;
20970;SDS011;10644;48.834;10.088;2024-01-30T08:48:45;60.50;;;23.17;;
20970;SDS011;10644;48.834;10.088;2024-01-30T08:51:11;65.57;;;24.63;;
20970;SDS011;10644;48.834;10.088;2024-01-30T08:53:37;66.97;;;24.50;;
20970;SDS011;10644;48.834;10.088;2024-01-30T08:56:05;60.67;;;23.38;;
20970;SDS011;10644;48.834;10.088;2024-01-30T08:58:33;58.53;;;22.65;;
20970;SDS011;10644;48.834;10.088;2024-01-30T09:00:59;58.83;;;24.02;;
20970;SDS011;10644;48.834;10.088;2024-01-30T09:03:24;56.00;;;24.80;;
20970;SDS011;10644;48.834;10.088;2024-01-30T09:05:49;54.97;;;22.57;;
20970;SDS011;10644;48.834;10.088;2024-01-30T09:08:15;67.27;;;24.63;;
20970;SDS011;10644;48.834;10.088;2024-01-30T09:10:40;61.23;;;22.80;;
20970;SDS011;10644;48.834;10.088;2024-01-30T09:13:07;49.60;;;23.50;;
20970;SDS011;10644;48.834;10.088;2024-01-30T09:15:32;75.22;;;25.80;;
20970;SDS011;10644;48.834;10.088;2024-01-30T09:18:00;65.20;;;23.90;;
20970;SDS011;10644;48.834;10.088;2024-01-30T09:20:25;64.82;;;23.50;;
20970;SDS011;10644;48.834;10.088;2024-01-30T09:22:51;55.70;;;22.60;;
20970;SDS011;10644;48.834;10.088;2024-01-30T09:25:16;54.77;;;23.73;;
20970;SDS011;10644;48.834;10.088;2024-01-30T09:27:46;54.88;;;22.70;;
20970;SDS011;10644;48.834;10.088;2024-01-30T09:30:12;74.60;;;24.25;;
20970;SDS011;10644;48.834;10.088;2024-01-30T09:32:39;58.97;;;22.53;;
20970;SDS011;10644;48.834;10.088;2024-01-30T09:35:07;60.28;;;23.10;;
20970;SDS011;10644;48.834;10.088;2024-01-30T09:37:32;59.93;;;22.40;;
20970;SDS011;10644;48.834;10.088;2024-01-30T09:40:00;57.27;;;22.13;;
20970;SDS011;10644;48.834;10.088;2024-01-30T09:45:06;61.78;;;22.15;;
20970;SDS011;10644;48.834;10.088;2024-01-30T09:47:32;59.67;;;22.70;;
20970;SDS011;10644;48.834;10.088;2024-01-30T09:50:04;53.42;;;21.23;;
20970;SDS011;10644;48.834;10.088;2024-01-30T09:52:33;47.22;;;20.35;;
20970;SDS011;10644;48.834;10.088;2024-01-30T09:55:00;53.97;;;21.07;;
20970;SDS011;10644;48.834;10.088;2024-01-30T09:57:26;59.67;;;21.87;;
20970;SDS011;10644;48.834;10.088;2024-01-30T09:59:54;54.00;;;20.13;;
20970;SDS011;10644;48.834;10.088;2024-01-30T10:02:20;46.23;;;19.37;;
20970;SDS011;10644;48.834;10.088;2024-01-30T10:04:49;62.77;;;22.90;;
20970;SDS011;10644;48.834;10.088;2024-01-30T10:07:19;50.50;;;21.30;;
20970;SDS011;10644;48.834;10.088;2024-01-30T10:09:45;56.73;;;22.60;;
20970;SDS011;10644;48.834;10.088;2024-01-30T10:12:11;55.40;;;21.77;;
20970;SDS011;10644;48.834;10.088;2024-01-30T10:14:41;62.10;;;24.07;;
20970;SDS011;10644;48.834;10.088;2024-01-30T10:17:11;54.87;;;24.27;;
20970;SDS011;10644;48.834;10.088;2024-01-30T10:19:40;59.27;;;26.80;;
20970;SDS011;10644;48.834;10.088;2024-01-30T10:22:06;62.20;;;25.40;;
20970;SDS011;10644;48.834;10.088;2024-01-30T10:24:34;50.57;;;22.70;;
20970;SDS011;10644;48.834;10.088;2024-01-30T10:27:00;45.97;;;23.93;;
20970;SDS011;10644;48.834;10.088;2024-01-30T10:29:26;70.97;;;27.67;;
20970;SDS011;10644;48.834;10.088;2024-01-30T10:31:57;63.53;;;25.70;;
20970;SDS011;10644;48.834;10.088;2024-01-30T10:34:23;58.30;;;25.80;;
20970;SDS011;10644;48.834;10.088;2024-01-30T10:36:51;52.90;;;26.43;;
20970;SDS011;10644;48.834;10.088;2024-01-30T10:39:31;60.20;;;25.63;;
20970;SDS011;10644;48.834;10.088;2024-01-30T10:42:03;67.73;;;25.60;;
20970;SDS011;10644;48.834;10.088;2024-01-30T10:44:30;56.27;;;24.53;;
20970;SDS011;10644;48.834;10.088;2024-01-30T10:47:03;63.07;;;25.33;;
20970;SDS011;10644;48.834;10.088;2024-01-30T10:49:33;55.37;;;25.10;;
20970;SDS011;10644;48.834;10.088;2024-01-30T10:52:01;56.60;;;23.10;;
20970;SDS011;10644;48.834;10.088;2024-01-30T10:54:28;64.13;;;22.63;;
20970;SDS011;10644;48.834;10.088;2024-01-30T10:56:57;55.53;;;21.07;;
20970;SDS011;10644;48.834;10.088;2024-01-30T10:59:26;62.83;;;23.07;;
20970;SDS011;10644;48.834;10.088;2024-01-30T11:01:52;51.40;;;22.83;;
20970;SDS011;10644;48.834;10.088;2024-01-30T11:04:18;70.00;;;34.80;;
20970;SDS011;10644;48.834;10.088;2024-01-30T11:06:44;56.90;;;28.57;;
20970;SDS011;10644;48.834;10.088;2024-01-30T11:09:10;63.80;;;27.57;;
20970;SDS011;10644;48.834;10.088;2024-01-30T11:14:29;53.43;;;23.33;;
20970;SDS011;10644;48.834;10.088;2024-01-30T11:16:58;57.43;;;22.57;;
20970;SDS011;10644;48.834;10.088;2024-01-30T11:19:25;58.63;;;23.17;;
20970;SDS011;10644;48.834;10.088;2024-01-30T11:21:53;59.67;;;23.67;;
20970;SDS011;10644;48.834;10.088;2024-01-30T11:24:22;43.13;;;19.70;;
20970;SDS011;10644;48.834;10.088;2024-01-30T11:26:58;66.13;;;22.90;;
20970;SDS011;10644;48.834;10.088;2024-01-30T11:29:24;43.27;;;21.17;;
20970;SDS011;10644;48.834;10.088;2024-01-30T11:32:02;25.57;;;9.37;;
20970;SDS011;10644;48.834;10.088;2024-01-30T11:34:27;22.57;;;5.60;;
20970;SDS011;10644;48.834;10.088;2024-01-30T11:36:57;21.27;;;5.70;;
20970;SDS011;10644;48.834;10.088;2024-01-30T11:39:24;14.73;;;4.50;;
20970;SDS011;10644;48.834;10.088;2024-01-30T11:41:54;20.67;;;5.70;;
20970;SDS011;10644;48.834;10.088;2024-01-30T11:44:20;51.70;;;23.10;;
20970;SDS011;10644;48.834;10.088;2024-01-30T11:46:47;25.00;;;8.30;;
20970;SDS011;10644;48.834;10.088;2024-01-30T11:49:16;17.23;;;5.33;;
20970;SDS011;10644;48.834;10.088;2024-01-30T11:51:45;22.80;;;6.10;;
20970;SDS011;10644;48.834;10.088;2024-01-30T11:54:11;36.83;;;12.20;;
20970;SDS011;10644;48.834;10.088;2024-01-30T11:56:39;19.50;;;5.47;;
20970;SDS011;10644;48.834;10.088;2024-01-30T11:59:07;20.87;;;5.90;;
20970;SDS011;10644;48.834;10.088;2024-01-30T12:01:32;20.87;;;5.93;;
20970;SDS011;10644;48.834;10.088;2024-01-30T12:03:58;18.53;;;5.70;;
20970;SDS011;10644;48.834;10.088;2024-01-30T12:06:25;16.33;;;5.93;;
20970;SDS011;10644;48.834;10.088;2024-01-30T12:09:00;19.63;;;5.73;;
20970;SDS011;10644;48.834;10.088;2024-01-30T12:11:29;13.83;;;5.80;;
20970;SDS011;10644;48.834;10.088;2024-01-30T12:13:55;26.17;;;7.13;;
20970;SDS011;10644;48.834;10.088;2024-01-30T12:16:21;20.13;;;6.03;;
20970;SDS011;10644;48.834;10.088;2024-01-30T12:18:49;16.80;;;5.10;;
20970;SDS011;10644;48.834;10.088;2024-01-30T12:21:17;31.17;;;8.13;;
20970;SDS011;10644;48.834;10.088;2024-01-30T12:23:43;24.43;;;6.63;;
20970;SDS011;10644;48.834;10.088;2024-01-30T12:26:08;15.30;;;5.20;;
20970;SDS011;10644;48.834;10.088;2024-01-30T12:28:34;23.67;;;7.13;;
20970;SDS011;10644;48.834;10.088;2024-01-30T12:31:03;26.10;;;7.27;;
20970;SDS011;10644;48.834;10.088;2024-01-30T12:33:29;24.57;;;6.73;;
20970;SDS011;10644;48.834;10.088;2024-01-30T12:35:55;19.70;;;5.97;;
20970;SDS011;10644;48.834;10.088;2024-01-30T12:38:22;37.10;;;7.87;;
20970;SDS011;10644;48.834;10.088;2024-01-30T12:40:55;31.33;;;6.77;;
20970;SDS011;10644;48.834;10.088;2024-01-30T12:43:21;24.17;;;5.77;;
20970;SDS011;10644;48.834;10.088;2024-01-30T12:45:47;15.20;;;4.83;;
20970;SDS011;10644;48.834;10.088;2024-01-30T12:48:13;22.33;;;5.53;;
20970;SDS011;10644;48.834;10.088;2024-01-30T12:50:40;23.73;;;5.90;;
20970;SDS011;10644;48.834;10.088;2024-01-30T12:53:06;16.63;;;4.97;;
20970;SDS011;10644;48.834;10.088;2024-01-30T12:55:32;44.97;;;8.87;;
20970;SDS011;10644;48.834;10.088;2024-01-30T12:57:57;20.93;;;5.93;;
20970;SDS011;10644;48.834;10.088;2024-01-30T13:00:23;30.63;;;6.90;;
20970;SDS011;10644;48.834;10.088;2024-01-30T13:02:51;21.60;;;5.93;;
20970;SDS011;10644;48.834;10.088;2024-01-30T13:05:17;22.60;;;5.80;;
20970;SDS011;10644;48.834;10.088;2024-01-30T13:07:42;23.10;;;6.77;;
20970;SDS011;10644;48.834;10.088;2024-01-30T13:10:08;20.13;;;5.60;;
20970;SDS011;10644;48.834;10.088;2024-01-30T13:12:33;18.87;;;5.97;;
20970;SDS011;10644;48.834;10.088;2024-01-30T13:14:59;19.63;;;6.10;;
20970;SDS011;10644;48.834;10.088;2024-01-30T13:17:29;22.67;;;7.17;;
20970;SDS011;10644;48.834;10.088;2024-01-30T13:19:55;27.20;;;6.87;;
20970;SDS011;10644;48.834;10.088;2024-01-30T13:22:24;27.23;;;7.30;;
20970;SDS011;10644;48.834;10.088;2024-01-30T13:24:51;23.80;;;6.20;;
20970;SDS011;10644;48.834;10.088;2024-01-30T13:27:16;32.07;;;7.63;;
20970;SDS011;10644;48.834;10.088;2024-01-30T13:29:45;31.03;;;8.63;;
20970;SDS011;10644;48.834;10.088;2024-01-30T13:32:10;24.17;;;6.77;;
20970;SDS011;10644;48.834;10.088;2024-01-30T13:34:36;29.27;;;7.57;;
20970;SDS011;10644;48.834;10.088;2024-01-30T13:37:01;27.87;;;6.67;;
20970;SDS011;10644;48.834;10.088;2024-01-30T13:39:26;28.93;;;6.80;;
20970;SDS011;10644;48.834;10.088;2024-01-30T13:41:52;33.37;;;6.83;;
20970;SDS011;10644;48.834;10.088;2024-01-30T13:44:18;48.30;;;10.43;;
20970;SDS011;10644;48.834;10.088;2024-01-30T13:46:46;20.90;;;5.60;;
20970;SDS011;10644;48.834;10.088;2024-01-30T13:49:12;23.07;;;4.90;;
20970;SDS011;10644;48.834;10.088;2024-01-30T13:51:37;24.30;;;5.90;;
20970;SDS011;10644;48.834;10.088;2024-01-30T13:54:02;34.37;;;8.00;;
20970;SDS011;10644;48.834;10.088;2024-01-30T13:56:28;20.17;;;5.90;;
20970;SDS011;10644;48.834;10.088;2024-01-30T13:58:56;17.83;;;5.20;;
20970;SDS011;10644;48.834;10.088;2024-01-30T14:01:27;19.33;;;5.33;;
20970;SDS011;10644;48.834;10.088;2024-01-30T14:03:52;17.40;;;5.13;;
20970;SDS011;10644;48.834;10.088;2024-01-30T14:06:20;32.70;;;7.10;;
20970;SDS011;10644;48.834;10.088;2024-01-30T14:08:50;16.80;;;5.50;;
20970;SDS011;10644;48.834;10.088;2024-01-30T14:11:20;19.83;;;5.20;;
20970;SDS011;10644;48.834;10.088;2024-01-30T14:13:49;19.07;;;5.03;;